Keyser, WV (26726)

7:00 AM EST en Noviembre 28, 2014 (GMT -0500)
Stoney Run Station | Change Station
CLOSE
Current Station
Estación meteorológica personal
Location: Keyser, WV
Altura: 1275 ft
Estaciones meteorológicas cercanas
Aviso en curso: Winter Weather Advisory

Alt 1275 ft 39.43 °N, 79.01 °W | Updated 1 second ago

Muy nublado
Muy nublado
26.7 ° F
Sensación térmica 27 ° F
N
3.0
Viento Variable Viento desde Norte
Gusts 10.0 mph

Hoy
Alta -- | Baja -- ° F
--% Posibilidad de precipitaciones
Ayer
Alta -- | Baja -- ° F
Precip. -- pul
7:14 AM 4:53 PM
Creciente, 39% visible
Presión 30.32 pul
Visibilidad 10.0 Millas
Nubes Nubes dispersas 6000 ft
Vientos helados 27 ° F
Punto de rocío 21 ° F
Humedad 78%
Precipitaciones 0.00 pul
Espesor de la nieve No disponible.
UV 0 de una escala de 12
Polen .10 de una escala de 12
Calidad del aire No disponible.
Flu Activity No disponible.
METAR KCBE 281154Z AUTO 24004KT 10SM SCT060 00/M08 A3032 RMK AO1

More Conditions Fewer Conditions

Presión 30.32 pul
Visibilidad 10.0 Millas
Nubes Nubes dispersas 6000 ft
Vientos helados 27 ° F
Punto de rocío 21 ° F
Humedad 78%
Precipitaciones 0.00 pul
Espesor de la nieve No disponible.
UV 0 de una escala de 12
Polen .10 de una escala de 12
Calidad del aire No disponible.
Flu Activity No disponible.
METAR KCBE 281154Z AUTO 24004KT 10SM SCT060 00/M08 A3032 RMK AO1

More Conditions Fewer Conditions

10-Day Weather Forecast

Almanac

Astronomía

Nov. 28, 2014 Salida Puesta
Hora real
Crepúsculo civil
Crepúsculo náutico
Crepúsculo astronómico
Luna
Horas de luz
Horas de luz
Tomorrow will be .
, % of the Moon is Illuminated

Extremos de hoy

Máximos del estado Bajos del estado

Community

WunderPhotos

Upload Photos

1,774,198 ¡fotos cargadas!

WunderBlogs® & News

Nearby

Calidad del aire

  Calidad del aire Índice AQ Contaminante
Not available.

Grosos de nieve

Estación Profundido Altura

Actividad de terremotos

Ciudad Distance Mag. Tiempo y dato
Magnitud mínima muestra es 2,5.

Temperaturas de aguas costeras

Lugar Temperatura

Estaciones meteorológicas cercanas